Time,TemperatureF,DewpointF,PressureIn,WindDirection,WindDirectionDegrees,WindSpeedMPH,WindSpeedGustMPH,Humidity,HourlyPrecipIn,Conditions,Clouds,dailyrainin,SoftwareType,DateUTC
2013-03-11 00:00:00,66.3,62.6,29.81,SE,135,8.0,24.0,88,0.00,,,-99.99,WeatherLink 5.6,2013-03-11 05:00:00,
2013-03-11 00:30:00,66.4,62.7,29.81,SE,135,8.0,23.0,88,0.00,,,-99.99,WeatherLink 5.6,2013-03-11 05:30:00,
2013-03-11 01:00:00,66.4,63.1,29.82,SE,135,7.0,19.0,89,0.00,,,-99.99,WeatherLink 5.6,2013-03-11 06:00:00,
2013-03-11 01:30:00,66.4,63.1,29.83,SE,135,7.0,18.0,89,0.00,,,-99.99,WeatherLink 5.6,2013-03-11 06:30:00,
2013-03-11 02:01:00,66.6,63.6,29.83,SE,135,6.0,15.0,90,0.00,,,-99.99,WeatherLink 5.6,2013-03-11 07:01:00,
2013-03-11 02:30:00,66.8,63.8,29.82,SE,135,5.0,13.0,90,0.00,,,-99.99,WeatherLink 5.6,2013-03-11 07:30:00,
2013-03-11 03:00:00,66.8,64.1,29.80,SE,135,4.0,16.0,91,0.00,,,-99.99,WeatherLink 5.6,2013-03-11 08:00:00,
2013-03-11 03:30:00,66.4,64.0,29.78,SSE,157,3.0,14.0,92,0.00,,,-99.99,WeatherLink 5.6,2013-03-11 08:30:00,
2013-03-11 04:00:00,66.4,64.0,29.77,SSE,157,1.0,9.0,92,0.00,,,-99.99,WeatherLink 5.6,2013-03-11 09:00:00,
2013-03-11 04:30:00,66.1,64.3,29.77,SSW,202,4.0,12.0,94,0.12,,,-99.99,WeatherLink 5.6,2013-03-11 09:30:00,
2013-03-11 05:00:00,65.8,64.3,29.75,SE,135,3.0,14.0,95,0.13,,,-99.99,WeatherLink 5.6,2013-03-11 10:00:00,
2013-03-11 05:30:00,66.4,64.9,29.75,South,180,4.0,13.0,95,0.01,,,-99.99,WeatherLink 5.6,2013-03-11 10:30:00,
2013-03-11 06:00:00,66.8,65.0,29.74,South,180,5.0,14.0,94,0.00,,,-99.99,WeatherLink 5.6,2013-03-11 11:00:00,
2013-03-11 06:30:00,66.3,64.5,29.74,South,180,4.0,14.0,94,0.00,,,-99.99,WeatherLink 5.6,2013-03-11 11:30:00,
2013-03-11 07:00:00,66.8,64.7,29.75,South,180,6.0,15.0,93,0.00,,,-99.99,WeatherLink 5.6,2013-03-11 12:00:00,
2013-03-11 07:30:00,66.8,64.7,29.75,South,180,5.0,15.0,93,0.00,,,-99.99,WeatherLink 5.6,2013-03-11 12:30:00,
2013-03-11 08:00:00,63.9,60.9,29.77,South,180,5.0,23.0,90,0.00,,,-99.99,WeatherLink 5.6,2013-03-11 13:00:00,
2013-03-11 08:30:00,56.5,54.5,29.80,WNW,292,4.0,19.0,93,0.04,,,-99.99,WeatherLink 5.6,2013-03-11 13:30:00,
2013-03-11 09:00:00,54.8,52.8,29.82,WNW,292,2.0,13.0,93,0.04,,,-99.99,WeatherLink 5.6,2013-03-11 14:00:00,
2013-03-11 09:30:00,52.6,50.3,29.83,NW,315,2.0,12.0,92,0.00,,,-99.99,WeatherLink 5.6,2013-03-11 14:30:00,
2013-03-11 10:00:00,52.0,49.7,29.84,NW,315,1.0,13.0,92,0.00,,,-99.99,WeatherLink 5.6,2013-03-11 15:00:00,
2013-03-11 10:30:00,50.8,48.0,29.84,NNW,337,1.0,14.0,90,0.00,,,-99.99,WeatherLink 5.6,2013-03-11 15:30:00,
2013-03-11 11:00:00,50.4,47.3,29.84,NW,315,1.0,11.0,89,0.00,,,-99.99,WeatherLink 5.6,2013-03-11 16:00:00,
2013-03-11 11:30:00,51.0,47.3,29.86,NW,315,0.0,7.0,87,0.00,,,-99.99,WeatherLink 5.6,2013-03-11 16:30:00,
2013-03-11 12:00:00,52.0,46.7,29.85,NW,315,1.0,12.0,82,0.00,,,-99.99,WeatherLink 5.6,2013-03-11 17:00:00,
2013-03-11 12:30:00,53.5,46.1,29.83,NW,315,1.0,13.0,76,0.00,,,-99.99,WeatherLink 5.6,2013-03-11 17:30:00,
2013-03-11 13:00:00,52.3,46.0,29.84,WNW,292,1.0,15.0,79,0.00,,,-99.99,WeatherLink 5.6,2013-03-11 18:00:00,
2013-03-11 13:30:00,53.8,48.4,29.82,WNW,292,0.0,7.0,82,0.00,,,-99.99,WeatherLink 5.6,2013-03-11 18:30:00,
2013-03-11 14:00:00,53.2,46.5,29.81,NW,315,1.0,13.0,78,0.00,,,-99.99,WeatherLink 5.6,2013-03-11 19:00:00,
2013-03-11 14:30:00,52.3,45.6,29.80,WNW,292,2.0,11.0,78,0.00,,,-99.99,WeatherLink 5.6,2013-03-11 19:30:00,
2013-03-11 15:00:00,51.6,46.3,29.80,WNW,292,1.0,11.0,82,0.00,,,-99.99,WeatherLink 5.6,2013-03-11 20:00:00,
2013-03-11 15:30:00,53.1,44.3,29.79,NW,315,1.0,7.0,72,0.00,,,-99.99,WeatherLink 5.6,2013-03-11 20:30:00,
2013-03-11 16:00:00,55.0,44.6,29.78,NNW,337,1.0,7.0,68,0.00,,,-99.99,WeatherLink 5.6,2013-03-11 21:00:00,
2013-03-11 16:30:00,56.9,44.4,29.78,NW,315,2.0,10.0,63,0.00,,,-99.99,WeatherLink 5.6,2013-03-11 21:30:00,
2013-03-11 17:00:00,58.0,44.2,29.78,NE,45,2.0,10.0,60,0.00,,,-99.99,WeatherLink 5.6,2013-03-11 22:00:00,
2013-03-11 17:30:00,56.2,45.0,29.78,NNE,22,2.0,12.0,66,0.00,,,-99.99,WeatherLink 5.6,2013-03-11 22:30:00,
2013-03-11 18:00:00,56.5,44.9,29.80,North,0,1.0,9.0,65,0.00,,,-99.99,WeatherLink 5.6,2013-03-11 23:00:00,
2013-03-11 18:30:00,57.0,44.1,29.80,NNW,337,1.0,5.0,62,0.00,,,-99.99,WeatherLink 5.6,2013-03-11 23:30:00,
2013-03-11 19:00:00,56.2,45.0,29.81,NNE,22,1.0,5.0,66,0.00,,,-99.99,WeatherLink 5.6,2013-03-12 00:00:00,
2013-03-11 19:30:00,54.2,45.0,29.82,ENE,67,1.0,5.0,71,0.00,,,-99.99,WeatherLink 5.6,2013-03-12 00:30:00,
2013-03-11 20:00:00,52.2,44.9,29.83,North,-999,0.0,0.0,76,0.00,,,-99.99,WeatherLink 5.6,2013-03-12 01:00:00,
2013-03-11 20:30:00,50.4,44.8,29.84,North,-999,0.0,0.0,81,0.00,,,-99.99,WeatherLink 5.6,2013-03-12 01:30:00,
2013-03-11 21:00:00,48.8,44.8,29.85,North,-999,0.0,0.0,86,0.00,,,-99.99,WeatherLink 5.6,2013-03-12 02:00:00,
2013-03-11 21:30:00,47.6,44.5,29.86,North,-999,0.0,0.0,89,0.00,,,-99.99,WeatherLink 5.6,2013-03-12 02:30:00,
2013-03-11 22:00:00,47.0,44.5,29.88,North,-999,0.0,0.0,91,0.00,,,-99.99,WeatherLink 5.6,2013-03-12 03:00:00,
2013-03-11 22:30:00,46.7,44.5,29.89,North,-999,0.0,0.0,92,0.00,,,-99.99,WeatherLink 5.6,2013-03-12 03:30:00,
2013-03-11 23:00:00,45.8,43.9,29.90,North,-999,0.0,0.0,93,0.00,,,-99.99,WeatherLink 5.6,2013-03-12 04:00:00,
2013-03-11 23:30:00,45.4,43.8,29.91,North,-999,0.0,0.0,94,0.00,,,-99.99,WeatherLink 5.6,2013-03-12 04:30:00,